Time;durP1;ratioP1;P1;durP2;ratioP2;P2;SDS_P1;SDS_P2;PMS_P1;PMS_P2;Temp;Humidity;BMP_temperature;BMP_pressure;BME280_temperature;BME280_humidity;BME280_pressure;Samples;Min_cycle;Max_cycle;Signal;HPM_P1;HPM_P2
2023/01/22 00:02:36;;;;;;;12.75;5.65;;;-2.00;99.90;;;;;;10206209;23;20084;-77
2023/01/22 00:06:36;;;;;;;8.82;4.40;;;-1.90;99.90;;;;;;10205866;23;20020;-77
2023/01/22 00:10:37;;;;;;;11.25;5.72;;;-2.10;99.90;;;;;;10232182;23;20428;-78
2023/01/22 00:14:39;;;;;;;13.18;5.47;;;-1.90;99.90;;;;;;10205708;23;20447;-76
2023/01/22 00:18:39;;;;;;;13.00;5.60;;;-1.90;99.90;;;;;;10205678;23;20001;-77
2023/01/22 00:22:40;;;;;;;11.40;4.57;;;-2.20;99.90;;;;;;10205904;23;20005;-78
2023/01/22 00:26:41;;;;;;;8.75;4.20;;;-2.20;99.90;;;;;;10231486;23;20047;-76
2023/01/22 00:30:41;;;;;;;10.52;4.63;;;-2.40;99.90;;;;;;10231988;23;19997;-76
2023/01/22 00:34:49;;;;;;;10.35;5.05;;;-2.30;99.90;;;;;;10205785;23;20016;-77
2023/01/22 00:38:50;;;;;;;14.45;4.82;;;-2.20;99.90;;;;;;10232056;23;20004;-78
2023/01/22 00:42:50;;;;;;;11.73;5.43;;;-2.10;99.90;;;;;;10232702;23;20001;-78
2023/01/22 00:46:51;;;;;;;9.73;5.00;;;-2.20;99.90;;;;;;10206088;23;20347;-78
2023/01/22 00:50:52;;;;;;;9.70;4.55;;;-2.10;99.90;;;;;;10205888;23;20092;-77
2023/01/22 00:54:52;;;;;;;11.02;5.68;;;-1.80;99.90;;;;;;10205548;23;20009;-77
2023/01/22 00:58:53;;;;;;;8.50;5.00;;;-1.80;99.90;;;;;;10205743;23;20064;-77
2023/01/22 01:07:12;;;;;;;7.30;4.27;;;-2.10;99.90;;;;;;10232238;23;20471;-76
2023/01/22 01:11:16;;;;;;;10.82;4.70;;;-2.10;99.90;;;;;;10231935;23;20001;-78
2023/01/22 01:15:16;;;;;;;11.18;5.35;;;-2.00;99.90;;;;;;10205547;23;20036;-77
2023/01/22 01:19:19;;;;;;;9.48;4.82;;;-1.80;99.90;;;;;;10231646;23;19997;-78
2023/01/22 01:23:19;;;;;;;12.02;5.88;;;-2.00;99.90;;;;;;10206565;23;20438;-78
2023/01/22 01:27:20;;;;;;;8.65;4.72;;;-1.70;99.90;;;;;;10205724;23;20048;-78
2023/01/22 01:31:23;;;;;;;10.43;5.43;;;-1.60;99.90;;;;;;10206271;23;20005;-77
2023/01/22 01:35:23;;;;;;;9.45;5.18;;;-1.80;99.90;;;;;;10232375;23;20020;-77
2023/01/22 01:39:24;;;;;;;12.43;4.32;;;-1.70;99.90;;;;;;10206813;23;20005;-78
2023/01/22 01:43:25;;;;;;;10.07;5.55;;;-1.80;99.90;;;;;;10208360;23;20020;-77
2023/01/22 01:47:34;;;;;;;9.27;4.43;;;-1.50;99.90;;;;;;10208964;23;20017;-78
2023/01/22 01:51:35;;;;;;;9.45;4.72;;;-1.60;99.90;;;;;;10208786;23;20052;-76
2023/01/22 01:55:38;;;;;;;14.05;6.13;;;-1.70;99.90;;;;;;10234731;23;20335;-77
2023/01/22 01:59:39;;;;;;;14.90;6.50;;;-1.60;99.90;;;;;;10234766;23;20071;-78
2023/01/22 02:03:40;;;;;;;9.63;5.05;;;-1.70;99.90;;;;;;10207550;23;20008;-77
2023/01/22 02:07:40;;;;;;;12.60;4.93;;;-1.90;99.90;;;;;;10207869;23;20021;-77
2023/01/22 02:11:41;;;;;;;10.10;4.93;;;-1.90;99.90;;;;;;10234321;23;20012;-76
2023/01/22 02:15:42;;;;;;;9.73;4.75;;;-2.10;99.90;;;;;;10207397;23;20061;-76
2023/01/22 02:19:44;;;;;;;9.68;5.13;;;-2.10;99.90;;;;;;10207623;23;20096;-77
2023/01/22 02:23:44;;;;;;;13.23;4.70;;;-2.00;99.90;;;;;;10207522;23;20040;-77
2023/01/22 02:27:45;;;;;;;10.57;5.55;;;-2.10;99.90;;;;;;10233916;23;20012;-76
2023/01/22 02:31:45;;;;;;;9.13;4.82;;;-2.10;99.90;;;;;;10207208;23;20013;-77
2023/01/22 02:35:46;;;;;;;10.95;4.60;;;-2.00;99.90;;;;;;10207241;23;20009;-78
2023/01/22 02:39:46;;;;;;;9.57;4.78;;;-2.10;99.90;;;;;;10207558;23;19993;-77
2023/01/22 02:43:47;;;;;;;9.85;4.10;;;-2.20;99.90;;;;;;10233710;23;20031;-78
2023/01/22 02:47:47;;;;;;;10.20;4.88;;;-2.10;99.90;;;;;;10207470;23;20005;-77
2023/01/22 02:51:48;;;;;;;17.63;5.22;;;-2.10;99.90;;;;;;10233648;23;19997;-77
2023/01/22 02:55:48;;;;;;;11.90;5.55;;;-2.00;99.90;;;;;;10207057;23;20068;-78
2023/01/22 02:59:49;;;;;;;10.57;5.43;;;-2.10;99.90;;;;;;10233512;23;20079;-77
2023/01/22 03:03:51;;;;;;;13.05;5.35;;;-2.20;99.90;;;;;;10232603;23;20012;-76
2023/01/22 03:07:51;;;;;;;13.25;5.35;;;-2.00;99.90;;;;;;10207124;23;20624;-77
2023/01/22 03:11:52;;;;;;;13.00;4.90;;;-1.90;99.90;;;;;;10233664;23;20009;-77
2023/01/22 03:24:31;;;;;;;8.93;4.55;;;-2.10;99.90;;;;;;10234683;23;20075;-78
2023/01/22 03:28:32;;;;;;;8.75;4.50;;;-2.00;99.90;;;;;;10207888;23;20017;-77
2023/01/22 03:32:32;;;;;;;13.52;5.50;;;-2.10;99.90;;;;;;10234636;23;20015;-77
2023/01/22 03:36:33;;;;;;;11.98;5.05;;;-1.90;99.90;;;;;;10208158;23;20068;-78
2023/01/22 03:40:33;;;;;;;9.90;4.80;;;-2.00;99.90;;;;;;10208009;23;20008;-78
2023/01/22 03:44:34;;;;;;;10.85;4.93;;;-1.80;99.90;;;;;;10207981;23;20013;-77
2023/01/22 03:48:34;;;;;;;12.38;5.50;;;-1.60;99.90;;;;;;10208218;23;20005;-78
2023/01/22 03:52:35;;;;;;;8.35;5.07;;;-1.60;99.90;;;;;;10207559;23;20016;-78
2023/01/22 03:56:36;;;;;;;11.85;5.63;;;-1.80;99.90;;;;;;10206491;23;20016;-78
2023/01/22 04:00:36;;;;;;;10.15;5.40;;;-1.90;99.90;;;;;;10234348;23;20076;-78
2023/01/22 04:04:37;;;;;;;10.07;4.30;;;-2.10;99.90;;;;;;10207604;23;20009;-78
2023/01/22 04:08:40;;;;;;;9.73;4.70;;;-2.00;99.90;;;;;;10207256;23;20005;-77
2023/01/22 04:12:40;;;;;;;11.98;4.80;;;-1.90;99.90;;;;;;10234855;23;20015;-78
2023/01/22 04:16:41;;;;;;;9.73;4.28;;;-1.80;99.90;;;;;;10233905;23;20009;-78
2023/01/22 04:20:41;;;;;;;13.63;6.28;;;-1.90;99.90;;;;;;10235368;23;20001;-78
2023/01/22 04:24:42;;;;;;;11.27;5.60;;;-1.90;99.90;;;;;;10209436;23;20020;-78
2023/01/22 04:28:42;;;;;;;11.52;4.82;;;-1.90;99.90;;;;;;10233532;23;20019;-78
2023/01/22 04:32:43;;;;;;;12.45;5.40;;;-1.90;99.90;;;;;;10235549;23;20008;-79
2023/01/22 04:36:43;;;;;;;9.93;4.78;;;-1.90;99.90;;;;;;10209594;23;20005;-76
2023/01/22 04:40:44;;;;;;;17.55;5.70;;;-1.90;99.90;;;;;;10235372;23;20001;-78
2023/01/22 04:44:44;;;;;;;9.88;4.90;;;-2.00;99.90;;;;;;10233716;23;20084;-78
2023/01/22 04:48:45;;;;;;;11.75;4.93;;;-2.00;99.90;;;;;;10233596;23;20072;-78
2023/01/22 04:52:46;;;;;;;12.18;5.93;;;-2.00;99.90;;;;;;10207361;23;20045;-75
2023/01/22 04:56:46;;;;;;;9.90;4.38;;;-1.90;99.90;;;;;;10206544;23;20005;-77
2023/01/22 05:00:47;;;;;;;10.25;4.78;;;-2.00;99.90;;;;;;10233348;23;20005;-78
2023/01/22 05:04:47;;;;;;;9.77;4.88;;;-2.00;99.90;;;;;;10207437;23;20013;-77
2023/01/22 05:08:48;;;;;;;11.65;4.95;;;-1.70;99.90;;;;;;10234299;23;20352;-77
2023/01/22 05:12:49;;;;;;;11.32;5.15;;;-1.60;99.90;;;;;;10209815;23;20009;-78
2023/01/22 05:16:50;;;;;;;9.60;5.07;;;-1.40;99.90;;;;;;10238384;23;20001;-78
2023/01/22 05:20:50;;;;;;;5.22;3.22;;;-1.10;99.90;;;;;;10211933;23;20064;-77
2023/01/22 05:24:51;;;;;;;5.38;3.58;;;-1.10;99.90;;;;;;10211296;23;20020;-77
2023/01/22 05:28:51;;;;;;;14.60;6.22;;;-1.20;99.90;;;;;;10210856;23;20504;-78
2023/01/22 05:32:56;;;;;;;9.82;5.25;;;-1.50;99.90;;;;;;10211831;23;20016;-78
2023/01/22 05:36:56;;;;;;;10.90;5.65;;;-1.40;99.90;;;;;;10211234;23;20440;-77
2023/01/22 05:40:57;;;;;;;7.78;4.57;;;-1.30;99.90;;;;;;10210646;23;20002;-76
2023/01/22 05:44:57;;;;;;;8.55;4.00;;;-1.30;99.90;;;;;;10237458;23;20028;-77
2023/01/22 05:48:58;;;;;;;6.80;3.25;;;-1.40;99.90;;;;;;10211214;23;20009;-78
2023/01/22 05:52:58;;;;;;;7.53;2.92;;;-1.30;99.90;;;;;;10210510;23;20005;-78
2023/01/22 05:56:59;;;;;;;9.77;4.93;;;-1.30;99.90;;;;;;10210447;23;20056;-77
2023/01/22 06:01:00;;;;;;;7.10;3.88;;;-1.30;99.90;;;;;;10210107;23;20068;-77
2023/01/22 06:05:00;;;;;;;10.60;5.03;;;-1.30;99.90;;;;;;10236093;23;20005;-77
2023/01/22 06:09:01;;;;;;;13.05;6.22;;;-1.40;99.90;;;;;;10237877;23;20403;-78
2023/01/22 06:13:01;;;;;;;4.88;2.25;;;-1.40;99.90;;;;;;10213041;23;20064;-76
2023/01/22 06:17:02;;;;;;;11.90;5.43;;;-1.30;99.90;;;;;;10211435;23;20001;-78
2023/01/22 06:21:05;;;;;;;6.80;2.97;;;-1.50;99.90;;;;;;10211400;23;20016;-78
2023/01/22 06:25:07;;;;;;;9.55;3.90;;;-1.50;99.90;;;;;;10211512;23;20016;-78
2023/01/22 06:29:08;;;;;;;13.02;5.60;;;-1.40;99.90;;;;;;10211497;23;20020;-78
2023/01/22 06:33:08;;;;;;;10.48;5.15;;;-1.50;99.90;;;;;;10211163;23;20092;-77
2023/01/22 06:37:09;;;;;;;13.55;5.93;;;-1.50;99.90;;;;;;10211000;23;20065;-78
2023/01/22 06:41:09;;;;;;;11.82;5.65;;;-1.50;99.90;;;;;;10211345;23;20466;-77
2023/01/22 06:45:10;;;;;;;10.32;4.90;;;-1.60;99.90;;;;;;10237924;23;20005;-78
2023/01/22 06:49:11;;;;;;;11.43;5.57;;;-1.50;99.90;;;;;;10236842;23;20027;-77
2023/01/22 06:53:13;;;;;;;12.68;5.45;;;-1.60;99.90;;;;;;10209546;23;20013;-76
2023/01/22 06:57:13;;;;;;;11.77;6.07;;;-2.00;99.90;;;;;;10237608;23;20036;-81
2023/01/22 07:01:14;;;;;;;11.25;6.00;;;-1.90;99.90;;;;;;10236311;23;20013;-78
2023/01/22 07:05:15;;;;;;;13.95;6.88;;;-1.90;99.90;;;;;;10209444;23;20444;-77
2023/01/22 07:09:15;;;;;;;12.25;6.53;;;-1.80;99.90;;;;;;10236871;23;20008;-77
2023/01/22 07:13:16;;;;;;;17.65;6.97;;;-1.80;99.90;;;;;;10210900;23;20001;-78
2023/01/22 07:17:16;;;;;;;11.00;5.72;;;-1.60;99.90;;;;;;10238712;23;20001;-77
2023/01/22 07:21:17;;;;;;;1.83;1.10;;;-1.10;99.90;;;;;;10209008;23;20097;-77
2023/01/22 07:25:18;;;;;;;8.50;5.38;;;-0.90;99.90;;;;;;10208693;23;20079;-78
2023/01/22 07:29:19;;;;;;;12.02;6.30;;;-0.90;99.90;;;;;;10207587;23;20009;-77
2023/01/22 07:33:19;;;;;;;11.45;5.53;;;-0.90;99.90;;;;;;10206596;23;20346;-77
2023/01/22 07:37:20;;;;;;;14.05;5.45;;;-1.00;99.90;;;;;;10206760;23;20005;-78
2023/01/22 07:41:20;;;;;;;9.82;4.82;;;-1.10;99.90;;;;;;10206431;23;20436;-77
2023/01/22 07:45:23;;;;;;;8.65;4.68;;;-0.90;99.90;;;;;;10206876;23;20455;-77
2023/01/22 07:49:23;;;;;;;13.93;6.13;;;-0.60;99.90;;;;;;10207123;23;20009;-76
2023/01/22 07:53:24;;;;;;;10.23;5.40;;;-0.40;99.90;;;;;;10214709;23;20262;-83
2023/01/22 07:57:24;;;;;;;12.90;5.25;;;-0.10;99.90;;;;;;10247885;23;20024;-82
2023/01/22 08:01:25;;;;;;;12.18;5.50;;;0.00;99.90;;;;;;10219805;23;20012;-83
2023/01/22 08:05:25;;;;;;;6.47;4.00;;;-0.20;99.90;;;;;;10220750;23;20040;-82
2023/01/22 08:09:26;;;;;;;6.22;3.47;;;-0.40;99.90;;;;;;10222415;23;20001;-83
2023/01/22 08:13:27;;;;;;;1.27;1.13;;;-0.40;99.90;;;;;;10221465;23;20013;-83
2023/01/22 08:17:27;;;;;;;11.63;5.07;;;-0.40;99.90;;;;;;10220925;23;20044;-82
2023/01/22 08:21:28;;;;;;;2.90;2.33;;;-0.60;99.90;;;;;;10216927;23;20005;-78
2023/01/22 08:25:28;;;;;;;14.90;6.63;;;-0.70;99.90;;;;;;10233113;23;20013;-77
2023/01/22 08:29:29;;;;;;;7.97;4.47;;;-0.70;99.90;;;;;;10207457;23;20009;-78
2023/01/22 08:33:31;;;;;;;8.40;3.08;;;-0.60;99.90;;;;;;10207957;23;20005;-78
2023/01/22 08:37:32;;;;;;;8.02;5.03;;;-0.50;99.90;;;;;;10206202;23;20012;-79
2023/01/22 08:41:33;;;;;;;1.30;0.93;;;-0.30;99.90;;;;;;10206779;23;20013;-79
2023/01/22 08:45:33;;;;;;;7.00;3.13;;;-0.20;99.90;;;;;;10207006;23;20455;-79
2023/01/22 08:49:34;;;;;;;14.82;6.38;;;-0.10;99.90;;;;;;10209439;23;20016;-78
2023/01/22 08:53:34;;;;;;;5.10;3.17;;;0.30;99.90;;;;;;10210791;23;20005;-79
2023/01/22 08:57:35;;;;;;;3.22;1.83;;;0.30;99.90;;;;;;10236735;23;20080;-78
2023/01/22 09:01:36;;;;;;;10.40;2.67;;;0.40;99.90;;;;;;10210151;23;20059;-79
2023/01/22 09:05:38;;;;;;;7.00;3.15;;;0.50;99.90;;;;;;10208504;23;20009;-78
2023/01/22 09:09:39;;;;;;;5.93;2.83;;;0.00;99.90;;;;;;10235598;23;20012;-78
2023/01/22 09:13:39;;;;;;;10.80;4.28;;;-0.50;99.90;;;;;;10207624;23;20581;-79
2023/01/22 09:17:41;;;;;;;4.47;3.05;;;-0.50;99.90;;;;;;10207873;23;20005;-79
2023/01/22 09:21:41;;;;;;;4.72;2.75;;;-0.20;99.90;;;;;;10207893;23;20055;-79
2023/01/22 09:25:42;;;;;;;1.85;0.75;;;-0.20;99.90;;;;;;10206134;23;20016;-79
2023/01/22 09:29:43;;;;;;;7.38;2.65;;;0.00;99.90;;;;;;10210194;23;20016;-79
2023/01/22 09:33:44;;;;;;;5.82;3.15;;;0.30;99.90;;;;;;10207907;23;20095;-79
2023/01/22 09:37:45;;;;;;;9.88;4.03;;;0.20;99.90;;;;;;10208637;23;20470;-78
2023/01/22 09:41:50;;;;;;;10.05;4.15;;;0.20;99.90;;;;;;10205769;23;20001;-78
2023/01/22 09:45:55;;;;;;;2.05;1.55;;;0.20;99.90;;;;;;10234977;23;20005;-79
2023/01/22 09:49:59;;;;;;;2.58;1.63;;;-0.10;99.90;;;;;;10236379;23;20013;-78
2023/01/22 09:54:02;;;;;;;5.40;2.55;;;-0.20;99.90;;;;;;10236576;23;20001;-79
2023/01/22 09:58:08;;;;;;;12.63;5.88;;;-0.40;99.90;;;;;;10209648;23;20013;-78
2023/01/22 10:02:35;;;;;;;10.80;3.92;;;-0.20;99.90;;;;;;10234705;23;20001;-78
2023/01/22 10:06:35;;;;;;;9.48;4.00;;;0.00;99.90;;;;;;10209387;23;20009;-78
2023/01/22 10:10:36;;;;;;;7.45;2.92;;;0.10;99.90;;;;;;10235983;23;20344;-79
2023/01/22 10:14:37;;;;;;;6.53;4.10;;;0.10;99.90;;;;;;10234638;23;20005;-80
2023/01/22 10:18:56;;;;;;;5.68;2.50;;;0.00;99.90;;;;;;10210193;23;20088;-79
2023/01/22 10:23:07;;;;;;;7.67;3.00;;;0.00;99.90;;;;;;10209656;23;20348;-80
2023/01/22 10:27:18;;;;;;;3.25;2.10;;;0.00;99.90;;;;;;10207449;23;20013;-81
2023/01/22 10:31:25;;;;;;;1.88;1.08;;;0.00;99.90;;;;;;10208910;23;20005;-80
2023/01/22 10:35:27;;;;;;;4.28;2.38;;;-0.10;99.90;;;;;;10235826;23;20089;-81
2023/01/22 10:39:37;;;;;;;7.30;3.05;;;-0.10;99.90;;;;;;10208776;23;20065;-82
2023/01/22 10:43:38;;;;;;;0.63;0.43;;;0.10;99.90;;;;;;10209678;23;20004;-82
2023/01/22 10:47:39;;;;;;;4.07;2.30;;;0.30;99.90;;;;;;10207753;23;20012;-82
2023/01/22 10:51:44;;;;;;;5.15;2.13;;;0.20;99.90;;;;;;10209864;23;20540;-81
2023/01/22 10:55:52;;;;;;;5.07;1.83;;;0.30;99.90;;;;;;10209737;23;20001;-81
2023/01/22 11:00:04;;;;;;;3.95;1.80;;;-0.10;99.90;;;;;;10210224;23;20033;-81
2023/01/22 11:04:22;;;;;;;0.95;0.93;;;-0.10;99.90;;;;;;10209007;23;20498;-82
2023/01/22 11:08:26;;;;;;;3.42;2.38;;;-0.10;99.90;;;;;;10209067;23;20020;-81
2023/01/22 11:12:31;;;;;;;2.83;1.63;;;-0.20;99.90;;;;;;10235296;23;20834;-81
2023/01/22 11:16:35;;;;;;;5.65;2.42;;;-0.40;99.90;;;;;;10206445;23;20103;-81
2023/01/22 11:20:50;;;;;;;2.03;1.52;;;-0.60;99.90;;;;;;10208579;23;20056;-80
2023/01/22 11:24:51;;;;;;;4.80;2.10;;;-0.20;99.90;;;;;;10207690;23;20148;-80
2023/01/22 11:29:05;;;;;;;1.90;0.82;;;-0.10;99.90;;;;;;10209126;23;20064;-81
2023/01/22 11:33:36;;;;;;;14.25;6.70;;;-0.30;99.90;;;;;;10208452;23;20015;-82
2023/01/22 11:38:13;;;;;;;1.88;0.82;;;0.00;99.90;;;;;;10208415;23;20629;-81
2023/01/22 11:42:56;;;;;;;1.77;1.15;;;0.30;99.90;;;;;;10208299;23;20168;-78
2023/01/22 11:47:05;;;;;;;5.50;2.58;;;0.30;99.90;;;;;;10209099;23;20523;-81
2023/01/22 11:51:27;;;;;;;6.82;3.17;;;0.10;99.90;;;;;;10235073;23;20008;-81
2023/01/22 11:55:53;;;;;;;3.45;1.95;;;0.10;99.90;;;;;;10234540;23;20001;-80
2023/01/22 12:00:05;;;;;;;9.95;3.95;;;0.20;99.90;;;;;;10208699;23;20013;-81
2023/01/22 12:04:11;;;;;;;10.77;5.10;;;0.40;99.90;;;;;;10207608;23;20005;-80
2023/01/22 12:08:21;;;;;;;3.40;2.05;;;0.50;99.90;;;;;;10234573;23;20012;-81
2023/01/22 12:13:03;;;;;;;4.45;3.33;;;0.50;99.90;;;;;;10231821;23;20008;-81
2023/01/22 12:17:10;;;;;;;7.18;3.67;;;0.10;99.90;;;;;;10234630;23;20347;-81
2023/01/22 12:21:40;;;;;;;3.25;1.50;;;0.40;99.90;;;;;;10234272;23;19993;-82
2023/01/22 12:26:05;;;;;;;5.80;2.95;;;0.40;99.90;;;;;;10190324;23;20021;-82
2023/01/22 12:30:32;;;;;;;7.25;3.47;;;0.20;99.90;;;;;;10205892;23;20005;-81
2023/01/22 12:34:50;;;;;;;2.95;1.23;;;0.00;99.90;;;;;;10207107;23;20017;-81
2023/01/22 12:38:53;;;;;;;8.57;3.65;;;-0.10;99.90;;;;;;10233434;23;20391;-81
2023/01/22 12:43:07;;;;;;;2.63;1.45;;;0.00;99.90;;;;;;10206785;23;20009;-82
2023/01/22 12:47:16;;;;;;;6.60;3.28;;;0.40;99.90;;;;;;10205444;23;20017;-81
2023/01/22 12:51:25;;;;;;;;;;;0.30;99.90;;;;;;10206034;23;20005;-81
2023/01/22 12:55:40;;;;;;;2.63;2.22;;;0.30;99.90;;;;;;10232844;23;19904;-82
2023/01/22 12:59:45;;;;;;;3.17;2.88;;;0.10;99.90;;;;;;10233356;23;20013;-81
2023/01/22 13:04:13;;;;;;;4.57;2.42;;;-0.10;99.90;;;;;;10206207;23;20013;-80
2023/01/22 13:08:14;;;;;;;5.93;3.13;;;-0.20;99.90;;;;;;10204037;23;20012;-81
2023/01/22 13:12:27;;;;;;;5.85;3.22;;;0.10;99.90;;;;;;10202937;23;20067;-80
2023/01/22 13:16:33;;;;;;;5.95;3.17;;;0.80;99.90;;;;;;10205336;23;20447;-81
2023/01/22 13:20:44;;;;;;;3.60;1.98;;;1.10;99.90;;;;;;10232590;23;20005;-79
2023/01/22 13:24:56;;;;;;;4.93;2.83;;;1.00;99.90;;;;;;10232903;23;20032;-78
2023/01/22 13:29:05;;;;;;;4.78;2.92;;;1.00;99.90;;;;;;10205373;23;20096;-81
2023/01/22 13:33:10;;;;;;;5.57;2.45;;;0.60;99.90;;;;;;10233266;23;20492;-81
2023/01/22 13:37:21;;;;;;;4.72;2.78;;;0.60;99.90;;;;;;10208836;23;20011;-81
2023/01/22 13:41:42;;;;;;;4.65;2.60;;;0.60;99.90;;;;;;10208652;23;20009;-80
2023/01/22 13:45:43;;;;;;;1.65;0.88;;;0.40;99.90;;;;;;10209489;23;20044;-80
2023/01/22 13:49:43;;;;;;;4.93;2.40;;;0.10;99.90;;;;;;10208985;23;20017;-81
2023/01/22 13:53:51;;;;;;;7.65;3.45;;;0.00;99.90;;;;;;10207672;23;20001;-81
2023/01/22 13:57:53;;;;;;;4.80;3.50;;;0.30;99.90;;;;;;10235367;23;20060;-82
2023/01/22 14:01:54;;;;;;;4.05;2.72;;;0.30;99.90;;;;;;10207893;23;20005;-80
2023/01/22 14:06:06;;;;;;;3.33;1.77;;;0.50;99.90;;;;;;10210258;23;20015;-81
2023/01/22 14:10:18;;;;;;;6.68;3.50;;;0.40;99.90;;;;;;10207411;23;20009;-79
2023/01/22 14:14:19;;;;;;;6.63;3.35;;;0.30;99.90;;;;;;10207570;23;20015;-80
2023/01/22 14:18:20;;;;;;;5.40;3.08;;;0.40;99.90;;;;;;10205799;23;20005;-81
2023/01/22 14:22:22;;;;;;;8.20;3.88;;;0.30;99.90;;;;;;10234067;23;20009;-81
2023/01/22 14:26:22;;;;;;;7.22;3.28;;;0.40;99.90;;;;;;10208528;23;20403;-80
2023/01/22 14:30:23;;;;;;;6.03;2.75;;;0.40;99.90;;;;;;10208943;23;20009;-78
2023/01/22 14:34:23;;;;;;;4.55;2.78;;;0.20;99.90;;;;;;10205714;23;20329;-78
2023/01/22 14:38:25;;;;;;;3.67;1.98;;;0.30;99.90;;;;;;10207098;23;20013;-78
2023/01/22 14:42:26;;;;;;;5.43;2.90;;;0.20;99.90;;;;;;10233694;23;20059;-78
2023/01/22 14:46:27;;;;;;;5.57;3.20;;;0.20;99.90;;;;;;10207532;23;20008;-77
2023/01/22 14:50:28;;;;;;;5.45;3.15;;;0.00;99.90;;;;;;10208950;23;20005;-78
2023/01/22 14:54:28;;;;;;;5.55;2.70;;;0.00;99.90;;;;;;10207754;23;20458;-79
2023/01/22 14:58:29;;;;;;;7.53;3.60;;;0.20;99.90;;;;;;10207018;23;20001;-79
2023/01/22 15:02:29;;;;;;;6.55;3.13;;;0.10;99.90;;;;;;10205794;23;20402;-79
2023/01/22 15:06:30;;;;;;;6.38;3.35;;;0.30;99.90;;;;;;10207555;23;20060;-79
2023/01/22 15:10:30;;;;;;;16.73;8.15;;;0.30;99.90;;;;;;10209092;23;20474;-80
2023/01/22 15:14:31;;;;;;;12.45;6.05;;;0.20;99.90;;;;;;10208268;23;20013;-79
2023/01/22 15:18:33;;;;;;;6.35;3.78;;;0.20;99.90;;;;;;10234547;23;20008;-79
2023/01/22 15:22:34;;;;;;;5.38;3.20;;;0.30;99.90;;;;;;10256197;23;20099;-83
2023/01/22 15:26:36;;;;;;;9.10;4.07;;;0.20;99.90;;;;;;10260853;23;20071;-83
2023/01/22 15:30:36;;;;;;;6.18;3.78;;;0.10;99.90;;;;;;10259548;23;20165;-83
2023/01/22 15:34:37;;;;;;;6.05;3.65;;;0.10;99.90;;;;;;10210030;23;20020;-83
2023/01/22 15:38:37;;;;;;;7.07;4.50;;;0.10;99.90;;;;;;10211392;23;20023;-83
2023/01/22 15:42:38;;;;;;;9.50;4.03;;;0.10;99.90;;;;;;10209311;23;20001;-83
2023/01/22 15:46:40;;;;;;;6.93;3.67;;;0.20;99.90;;;;;;10208656;23;20001;-83
2023/01/22 15:50:40;;;;;;;5.95;3.17;;;-0.20;99.90;;;;;;10209161;23;20020;-83
2023/01/22 15:54:41;;;;;;;8.32;4.00;;;-0.40;99.90;;;;;;10235851;23;20012;-84
2023/01/22 15:58:41;;;;;;;10.20;4.63;;;-0.40;99.90;;;;;;10212260;23;20005;-84
2023/01/22 16:02:42;;;;;;;8.50;3.78;;;-0.30;99.90;;;;;;10209675;23;20010;-84
2023/01/22 16:06:46;;;;;;;6.68;3.72;;;-0.50;99.90;;;;;;10210293;23;20005;-83
2023/01/22 16:10:46;;;;;;;6.70;3.50;;;-0.20;99.90;;;;;;10207438;23;20012;-83
2023/01/22 16:14:47;;;;;;;7.78;4.75;;;0.10;99.90;;;;;;10211029;23;20008;-83
2023/01/22 16:18:49;;;;;;;8.63;4.07;;;0.00;99.90;;;;;;10210117;23;20005;-84
2023/01/22 16:22:49;;;;;;;9.60;4.47;;;-0.30;99.90;;;;;;10209927;23;20044;-83
2023/01/22 16:26:50;;;;;;;8.32;4.00;;;-0.70;99.90;;;;;;10209809;23;20012;-83
2023/01/22 16:30:52;;;;;;;9.07;4.68;;;-0.70;99.90;;;;;;10210620;23;20464;-83
2023/01/22 16:34:53;;;;;;;6.88;3.97;;;-0.70;99.90;;;;;;10208454;23;20012;-83
2023/01/22 16:38:53;;;;;;;5.70;3.65;;;-0.70;99.90;;;;;;10208838;23;20002;-84
2023/01/22 16:43:01;;;;;;;9.10;4.30;;;-0.80;99.90;;;;;;10208758;23;20056;-84
2023/01/22 16:47:02;;;;;;;9.95;4.20;;;-1.00;99.90;;;;;;10210066;23;20355;-80
2023/01/22 16:51:12;;;;;;;9.50;4.78;;;-0.90;99.90;;;;;;10211187;23;20016;-81
2023/01/22 16:55:19;;;;;;;9.32;4.45;;;-0.90;99.90;;;;;;10210351;23;20017;-81
2023/01/22 16:59:20;;;;;;;9.30;4.40;;;-0.90;99.90;;;;;;10209738;23;20551;-80
2023/01/22 17:03:20;;;;;;;9.82;4.78;;;-0.90;99.90;;;;;;10236742;23;20047;-80
2023/01/22 17:07:21;;;;;;;8.23;4.53;;;-0.90;99.90;;;;;;10209566;23;19997;-81
2023/01/22 17:11:22;;;;;;;7.47;4.40;;;-0.70;99.90;;;;;;10237550;23;20398;-79
2023/01/22 17:15:22;;;;;;;9.45;5.07;;;-0.80;99.90;;;;;;10238754;23;20009;-81
2023/01/22 17:19:23;;;;;;;9.02;4.85;;;-0.80;99.90;;;;;;10240512;23;20072;-81
2023/01/22 17:23:23;;;;;;;9.95;5.57;;;-1.00;99.90;;;;;;10213635;23;20017;-80
2023/01/22 17:27:24;;;;;;;13.88;6.68;;;-1.10;99.90;;;;;;10239269;23;20001;-81
2023/01/22 17:31:25;;;;;;;11.13;5.47;;;-1.00;99.90;;;;;;10213686;23;20093;-81
2023/01/22 17:35:26;;;;;;;12.07;6.40;;;-0.80;99.90;;;;;;10213748;23;20076;-81
2023/01/22 17:39:26;;;;;;;13.98;6.13;;;-0.90;99.90;;;;;;10239035;23;20076;-81
2023/01/22 17:43:27;;;;;;;22.17;10.35;;;-0.40;99.90;;;;;;10213535;23;20016;-81
2023/01/22 17:47:28;;;;;;;13.68;7.00;;;-0.40;99.90;;;;;;10213264;23;20015;-81
2023/01/22 17:51:29;;;;;;;15.77;7.38;;;-0.30;99.90;;;;;;10240403;23;20001;-81
2023/01/22 17:55:29;;;;;;;17.50;8.00;;;-0.30;99.90;;;;;;10239112;23;20052;-80
2023/01/22 17:59:30;;;;;;;14.88;7.65;;;-0.30;99.90;;;;;;10213399;23;20511;-81
2023/01/22 18:03:31;;;;;;;17.92;8.48;;;-0.40;99.90;;;;;;10213133;23;20305;-81
2023/01/22 18:07:31;;;;;;;13.77;7.55;;;-0.50;99.90;;;;;;10213452;23;20009;-81
2023/01/22 18:11:33;;;;;;;17.77;8.50;;;-0.60;99.90;;;;;;10210266;23;20010;-81
2023/01/22 18:15:34;;;;;;;22.02;8.35;;;-0.50;99.90;;;;;;10239028;23;20004;-81
2023/01/22 18:19:34;;;;;;;18.20;8.57;;;-0.80;99.90;;;;;;10212523;23;20001;-81
2023/01/22 18:23:35;;;;;;;17.35;7.65;;;-0.90;99.90;;;;;;10210329;23;20023;-80
2023/01/22 18:27:35;;;;;;;14.50;6.82;;;-1.00;99.90;;;;;;10210933;23;20009;-81
2023/01/22 18:31:36;;;;;;;14.30;6.90;;;-1.10;99.90;;;;;;10239332;23;20001;-81
2023/01/22 18:35:37;;;;;;;14.48;7.18;;;-1.20;99.90;;;;;;10211137;23;20395;-81
2023/01/22 18:39:39;;;;;;;17.05;6.97;;;-1.20;99.90;;;;;;10212056;23;20016;-81
2023/01/22 18:43:40;;;;;;;10.40;5.45;;;-1.00;99.90;;;;;;10213511;23;20009;-81
2023/01/22 18:47:41;;;;;;;14.55;6.75;;;-0.80;99.90;;;;;;10237534;23;20029;-81
2023/01/22 18:51:43;;;;;;;17.27;7.43;;;-0.90;99.90;;;;;;10209557;23;20009;-81
2023/01/22 18:55:44;;;;;;;13.52;6.35;;;-0.90;99.90;;;;;;10212900;23;20415;-81
2023/01/22 18:59:44;;;;;;;16.38;7.00;;;-1.20;99.90;;;;;;10211694;23;20034;-81
2023/01/22 19:03:48;;;;;;;16.70;6.28;;;-1.10;99.90;;;;;;10212546;23;20474;-81
2023/01/22 19:07:48;;;;;;;12.50;6.57;;;-1.30;99.90;;;;;;10212144;23;20009;-83
2023/01/22 19:11:50;;;;;;;13.60;6.78;;;-1.40;99.90;;;;;;10212068;23;20009;-81
2023/01/22 19:15:51;;;;;;;12.73;6.35;;;-1.50;99.90;;;;;;10212109;23;20032;-81
2023/01/22 19:19:51;;;;;;;14.70;6.72;;;-1.50;99.90;;;;;;10211169;23;20044;-80
2023/01/22 19:23:55;;;;;;;12.88;6.18;;;-1.50;99.90;;;;;;10210392;23;20024;-81
2023/01/22 19:27:56;;;;;;;12.93;6.30;;;-1.50;99.90;;;;;;10213156;23;20104;-81
2023/01/22 19:31:57;;;;;;;12.95;6.00;;;-1.50;99.90;;;;;;10213988;23;20020;-81
2023/01/22 19:35:57;;;;;;;12.25;6.25;;;-1.50;99.90;;;;;;10210477;23;20336;-82
2023/01/22 19:39:58;;;;;;;14.63;6.50;;;-1.50;99.90;;;;;;10210600;23;20001;-81
2023/01/22 19:44:01;;;;;;;13.73;6.60;;;-1.60;99.90;;;;;;10212220;23;20013;-81
2023/01/22 19:48:05;;;;;;;13.15;6.40;;;-1.70;99.90;;;;;;10211719;23;20009;-82
2023/01/22 19:52:07;;;;;;;14.38;6.00;;;-1.50;99.90;;;;;;10212743;23;20017;-81
2023/01/22 19:56:20;;;;;;;13.52;6.50;;;-1.40;99.90;;;;;;10212023;23;20071;-80
2023/01/22 20:00:22;;;;;;;13.32;5.90;;;-1.30;99.90;;;;;;10209577;23;20001;-81
2023/01/22 20:04:25;;;;;;;14.35;6.05;;;-1.50;99.90;;;;;;10208920;23;20008;-81
2023/01/22 20:08:26;;;;;;;10.70;5.70;;;-1.30;99.90;;;;;;10208886;23;20671;-80
2023/01/22 20:12:26;;;;;;;10.25;5.35;;;-1.00;99.90;;;;;;10208151;23;20020;-80
2023/01/22 20:16:28;;;;;;;11.68;5.47;;;-1.30;99.90;;;;;;10208902;23;20594;-81
2023/01/22 20:20:29;;;;;;;16.52;7.53;;;-1.40;99.90;;;;;;10235943;23;20017;-81
2023/01/22 20:24:29;;;;;;;14.45;6.00;;;-1.50;99.90;;;;;;10207361;23;20017;-79
2023/01/22 20:28:30;;;;;;;14.23;6.25;;;-1.50;99.90;;;;;;10205830;23;20016;-80
2023/01/22 20:32:31;;;;;;;11.95;6.22;;;-1.60;99.90;;;;;;10207550;23;20071;-80
2023/01/22 20:36:31;;;;;;;11.20;5.28;;;-1.60;99.90;;;;;;10207382;23;20402;-80
2023/01/22 20:40:33;;;;;;;12.00;6.07;;;-1.60;99.90;;;;;;10207063;23;20012;-80
2023/01/22 20:44:34;;;;;;;10.93;5.35;;;-1.50;99.90;;;;;;10207573;23;20009;-79
2023/01/22 20:48:35;;;;;;;14.90;5.88;;;-1.60;99.90;;;;;;10211677;23;20009;-80
2023/01/22 20:52:36;;;;;;;12.02;6.28;;;-1.70;99.90;;;;;;10237772;23;20495;-80
2023/01/22 20:56:37;;;;;;;14.38;6.50;;;-1.70;99.90;;;;;;10236741;23;20090;-80
2023/01/22 21:00:38;;;;;;;15.40;6.47;;;-1.70;99.90;;;;;;10211301;23;20005;-80